createdAt,value
2022-08-17T00:00:49.208Z,90.60
2022-08-17T00:01:52.261Z,90.80
2022-08-17T00:02:42.868Z,91.00
2022-08-17T00:03:40.400Z,92.42
2022-08-17T00:04:40.200Z,92.93
2022-08-17T00:05:40.136Z,91.92
2022-08-17T00:06:40.663Z,91.31
2022-08-17T00:07:40.201Z,90.70
2022-08-17T00:08:40.152Z,90.91
2022-08-17T00:09:40.027Z,90.80
2022-08-17T00:10:40.129Z,91.20
2022-08-17T00:11:40.124Z,91.82
2022-08-17T00:12:43.237Z,92.63
2022-08-17T00:13:40.312Z,93.49
2022-08-17T00:14:40.266Z,93.90
2022-08-17T00:15:40.035Z,93.19
2022-08-17T00:16:50.448Z,91.97
2022-08-17T00:17:40.067Z,91.47
2022-08-17T00:18:53.867Z,91.11
2022-08-17T00:19:40.127Z,91.00
2022-08-17T00:20:40.033Z,91.31
2022-08-17T00:22:10.643Z,91.51
2022-08-17T00:22:40.350Z,92.42
2022-08-17T00:23:44.416Z,92.79
2022-08-17T00:24:40.272Z,92.99
2022-08-17T00:25:39.946Z,93.08
2022-08-17T00:26:45.130Z,93.29
2022-08-17T00:27:39.998Z,92.68
2022-08-17T00:28:39.923Z,92.58
2022-08-17T00:29:40.047Z,92.88
2022-08-17T00:30:51.051Z,93.29
2022-08-17T00:31:40.020Z,92.88
2022-08-17T00:33:11.613Z,92.02
2022-08-17T00:33:39.650Z,91.31
2022-08-17T00:34:39.669Z,90.60
2022-08-17T00:35:39.878Z,90.50
2022-08-17T00:36:39.651Z,90.70
2022-08-17T00:37:39.605Z,90.80
2022-08-17T00:38:39.800Z,90.64
2022-08-17T00:39:39.656Z,90.95
2022-08-17T00:40:44.460Z,91.35
2022-08-17T00:41:42.198Z,92.36
2022-08-17T00:42:39.590Z,92.36
2022-08-17T00:43:39.569Z,92.47
2022-08-17T00:44:39.699Z,93.18
2022-08-17T00:45:39.516Z,93.88
2022-08-17T00:46:39.549Z,92.87
2022-08-17T00:47:39.588Z,91.55
2022-08-17T00:48:39.605Z,91.55
2022-08-17T00:49:39.507Z,91.30
2022-08-17T00:50:39.490Z,91.19
2022-08-17T00:51:39.526Z,91.90
2022-08-17T00:52:40.449Z,93.83
2022-08-17T00:53:39.510Z,94.74
2022-08-17T00:54:41.909Z,95.35
2022-08-17T00:55:39.498Z,94.84
2022-08-17T00:56:39.394Z,94.34
2022-08-17T00:57:39.389Z,94.23
2022-08-17T00:58:39.371Z,94.23
2022-08-17T00:59:39.347Z,94.03
2022-08-17T01:00:39.452Z,93.32
2022-08-17T01:01:39.384Z,92.71
2022-08-17T01:02:42.299Z,92.61
2022-08-17T01:03:39.327Z,92.91
2022-08-17T01:04:39.333Z,93.83
2022-08-17T01:05:42.339Z,94.13
2022-08-17T01:06:39.529Z,93.02
2022-08-17T01:07:39.298Z,93.52
2022-08-17T01:08:39.268Z,93.12
2022-08-17T01:09:39.233Z,93.22
2022-08-17T01:10:57.186Z,94.13
2022-08-17T01:11:39.270Z,94.84
2022-08-17T01:12:39.287Z,95.55
2022-08-17T01:13:41.179Z,95.95
2022-08-17T01:14:39.172Z,96.06
2022-08-17T01:15:39.244Z,95.95
2022-08-17T01:16:39.154Z,95.70
2022-08-17T01:17:39.147Z,94.98
2022-08-17T01:18:39.169Z,94.89
2022-08-17T01:19:39.154Z,95.19
2022-08-17T01:20:43.088Z,95.79
2022-08-17T01:21:39.105Z,95.19
2022-08-17T01:22:39.081Z,94.27
2022-08-17T01:23:39.104Z,94.18
2022-08-17T01:24:39.095Z,93.26
2022-08-17T01:25:39.056Z,92.29
2022-08-17T01:26:39.073Z,91.99
2022-08-17T01:27:39.045Z,91.99
2022-08-17T01:28:54.136Z,93.21
2022-08-17T01:29:39.019Z,94.27
2022-08-17T01:30:58.856Z,94.89
2022-08-17T01:31:39.535Z,93.87
2022-08-17T01:32:38.975Z,94.18
2022-08-17T01:33:38.969Z,94.48
2022-08-17T01:34:43.510Z,93.57
2022-08-17T01:35:38.949Z,92.29
2022-08-17T01:36:38.990Z,91.68
2022-08-17T01:37:38.941Z,91.78
2022-08-17T01:38:39.040Z,91.89
2022-08-17T01:39:39.956Z,91.58
2022-08-17T01:40:38.885Z,91.89
2022-08-17T01:41:38.874Z,91.83
2022-08-17T01:42:38.901Z,92.03
2022-08-17T01:43:38.890Z,92.49
2022-08-17T01:44:38.858Z,92.90
2022-08-17T01:45:38.830Z,93.41
2022-08-17T01:46:38.810Z,93.91
2022-08-17T01:47:38.810Z,93.10
2022-08-17T01:48:38.832Z,93.41
2022-08-17T01:49:39.496Z,93.71
2022-08-17T01:50:38.770Z,93.21
2022-08-17T01:51:39.016Z,93.61
2022-08-17T01:52:38.739Z,94.22
2022-08-17T01:53:38.760Z,95.13
2022-08-17T01:54:38.786Z,96.19
2022-08-17T01:55:38.705Z,96.39
2022-08-17T01:56:38.703Z,95.99
2022-08-17T01:57:38.688Z,95.99
2022-08-17T01:58:38.722Z,95.89
2022-08-17T01:59:38.674Z,94.98
2022-08-17T02:01:00.875Z,93.86
2022-08-17T02:01:38.827Z,93.49
2022-08-17T02:02:38.641Z,93.49
2022-08-17T02:03:38.622Z,93.19
2022-08-17T02:04:38.664Z,93.60
2022-08-17T02:05:38.625Z,94.61
2022-08-17T02:06:52.431Z,95.83
2022-08-17T02:07:59.720Z,96.64
2022-08-17T02:08:43.196Z,96.75
2022-08-17T02:09:39.496Z,96.64
2022-08-17T02:10:38.606Z,96.14
2022-08-17T02:11:38.536Z,95.83
2022-08-17T02:12:39.881Z,95.63
2022-08-17T02:13:39.367Z,95.53
2022-08-17T02:14:38.502Z,95.02
2022-08-17T02:15:38.547Z,95.32
2022-08-17T02:16:38.467Z,95.63
2022-08-17T02:17:38.503Z,95.73
2022-08-17T02:18:38.506Z,95.53
2022-08-17T02:19:39.012Z,95.22
2022-08-17T02:20:41.985Z,95.02
2022-08-17T02:21:38.428Z,94.71
2022-08-17T02:22:38.425Z,94.76
2022-08-17T02:23:38.422Z,94.56
2022-08-17T02:24:58.834Z,94.76
2022-08-17T02:25:38.395Z,94.96
2022-08-17T02:26:38.350Z,95.17
2022-08-17T02:27:38.377Z,94.86
2022-08-17T02:28:38.328Z,94.05
2022-08-17T02:29:38.326Z,93.64
2022-08-17T02:30:59.406Z,93.33
2022-08-17T02:31:38.307Z,92.83
2022-08-17T02:32:38.291Z,92.93
2022-08-17T02:33:42.911Z,92.93
2022-08-17T02:34:38.286Z,92.87
2022-08-17T02:35:38.327Z,92.77
2022-08-17T02:36:38.303Z,92.77
2022-08-17T02:37:38.228Z,92.67
2022-08-17T02:38:38.241Z,92.57
2022-08-17T02:39:38.327Z,92.26
2022-08-17T02:40:38.210Z,92.06
2022-08-17T02:41:38.188Z,92.06
2022-08-17T02:42:38.228Z,92.36
2022-08-17T02:43:38.210Z,92.36
2022-08-17T02:44:39.908Z,92.16
2022-08-17T02:45:38.161Z,92.06
2022-08-17T02:46:38.151Z,92.67
2022-08-17T02:47:38.131Z,92.82
2022-08-17T02:48:38.162Z,93.32
2022-08-17T02:49:38.106Z,94.90
2022-08-17T02:50:38.081Z,95.51
2022-08-17T02:51:38.075Z,95.41
2022-08-17T02:52:42.322Z,94.50
2022-08-17T02:53:38.065Z,93.52
2022-08-17T02:54:41.340Z,93.43
2022-08-17T02:55:38.047Z,93.73
2022-08-17T02:56:40.013Z,94.04
2022-08-17T02:57:38.019Z,94.40
2022-08-17T02:58:38.005Z,94.29
2022-08-17T02:59:37.992Z,94.70
2022-08-17T03:00:38.009Z,94.20
2022-08-17T03:01:38.054Z,93.89
2022-08-17T03:02:37.961Z,95.51
2022-08-17T03:03:37.995Z,95.92
2022-08-17T03:04:37.936Z,96.08
2022-08-17T03:05:37.917Z,97.86
2022-08-17T03:06:37.933Z,98.97
2022-08-17T03:07:38.529Z,99.04
2022-08-17T03:08:39.491Z,98.83
2022-08-17T03:09:37.868Z,98.73
2022-08-17T03:10:37.867Z,98.52
2022-08-17T03:11:37.847Z,98.22
2022-08-17T03:12:37.872Z,97.31
2022-08-17T03:13:37.855Z,97.81
2022-08-17T03:14:41.308Z,98.18
2022-08-17T03:15:37.815Z,98.07
2022-08-17T03:16:37.889Z,97.47
2022-08-17T03:17:37.828Z,97.16
2022-08-17T03:18:37.904Z,96.96
2022-08-17T03:19:39.640Z,96.45
2022-08-17T03:20:37.856Z,96.75
2022-08-17T03:21:38.063Z,96.75
2022-08-17T03:22:52.964Z,96.75
2022-08-17T03:23:37.750Z,96.66
2022-08-17T03:24:38.443Z,96.30
2022-08-17T03:25:37.777Z,96.19
2022-08-17T03:26:37.993Z,96.50
2022-08-17T03:27:37.814Z,96.60
2022-08-17T03:28:37.681Z,97.06
2022-08-17T03:29:38.385Z,97.36
2022-08-17T03:30:37.901Z,97.77
2022-08-17T03:31:38.709Z,97.97
2022-08-17T03:32:37.709Z,97.56
2022-08-17T03:33:37.625Z,97.26
2022-08-17T03:34:37.677Z,96.86
2022-08-17T03:35:37.661Z,96.75
2022-08-17T03:36:37.689Z,96.35
2022-08-17T03:37:37.561Z,95.99
2022-08-17T03:38:38.981Z,95.28
2022-08-17T03:39:37.596Z,94.37
2022-08-17T03:40:58.204Z,94.26
2022-08-17T03:41:37.529Z,94.51
2022-08-17T03:42:37.535Z,94.82
2022-08-17T03:43:38.536Z,94.82
2022-08-17T03:44:37.549Z,94.92
2022-08-17T03:45:37.458Z,94.92
2022-08-17T03:46:37.452Z,94.71
2022-08-17T03:47:37.440Z,94.51
2022-08-17T03:48:37.509Z,94.51
2022-08-17T03:49:37.451Z,94.71
2022-08-17T03:50:37.410Z,94.82
2022-08-17T03:51:37.404Z,95.02
2022-08-17T03:52:37.397Z,94.71
2022-08-17T03:53:37.376Z,94.71
2022-08-17T03:54:37.412Z,94.71
2022-08-17T03:55:37.355Z,95.32
2022-08-17T03:56:37.854Z,95.42
2022-08-17T03:57:37.325Z,95.22
2022-08-17T03:58:37.321Z,95.02
2022-08-17T03:59:37.315Z,95.42
2022-08-17T04:00:39.729Z,95.94
2022-08-17T04:01:37.308Z,96.90
2022-08-17T04:02:37.274Z,97.31
2022-08-17T04:03:38.031Z,97.71
2022-08-17T04:04:37.249Z,97.81
2022-08-17T04:05:37.288Z,97.61
2022-08-17T04:06:37.299Z,97.20
2022-08-17T04:07:37.221Z,96.50
2022-08-17T04:08:37.208Z,95.79
2022-08-17T04:09:37.192Z,95.42
2022-08-17T04:10:44.789Z,95.32
2022-08-17T04:11:37.184Z,95.22
2022-08-17T04:12:37.301Z,95.22
2022-08-17T04:13:37.144Z,95.12
2022-08-17T04:14:51.875Z,95.12
2022-08-17T04:15:37.127Z,95.02
2022-08-17T04:16:37.117Z,95.02
2022-08-17T04:17:37.112Z,95.22
2022-08-17T04:18:37.140Z,95.32
2022-08-17T04:19:37.103Z,95.99
2022-08-17T04:20:37.066Z,96.70
2022-08-17T04:21:37.063Z,97.61
2022-08-17T04:22:37.403Z,98.58
2022-08-17T04:23:37.277Z,99.44
2022-08-17T04:24:37.286Z,99.99
2022-08-17T04:25:37.224Z,99.99
2022-08-17T04:26:52.444Z,99.99
2022-08-17T04:27:37.406Z,99.99
2022-08-17T04:28:37.382Z,99.99
2022-08-17T04:29:54.217Z,99.99
2022-08-17T04:30:37.479Z,99.99
2022-08-17T04:31:37.320Z,99.99
2022-08-17T04:33:05.269Z,99.99
2022-08-17T04:33:37.268Z,99.99
2022-08-17T04:34:37.359Z,99.99
2022-08-17T04:35:37.106Z,99.99
2022-08-17T04:36:37.443Z,99.99
2022-08-17T04:37:37.213Z,99.99
2022-08-17T04:38:36.884Z,99.99
2022-08-17T04:39:36.909Z,99.99
2022-08-17T04:40:36.838Z,99.99
2022-08-17T04:41:36.825Z,99.99
2022-08-17T04:42:36.911Z,99.99
2022-08-17T04:43:36.839Z,99.99
2022-08-17T04:44:38.017Z,99.99
2022-08-17T04:45:36.786Z,99.99
2022-08-17T04:46:36.775Z,99.99
2022-08-17T04:47:36.829Z,99.99
2022-08-17T04:48:37.607Z,99.99
2022-08-17T04:49:36.742Z,99.99
2022-08-17T04:50:36.755Z,99.99
2022-08-17T04:51:36.709Z,99.99
2022-08-17T04:52:43.287Z,99.99
2022-08-17T04:53:36.981Z,99.99
2022-08-17T04:54:36.744Z,99.99
2022-08-17T04:55:36.674Z,99.99
2022-08-17T04:56:36.656Z,99.99
2022-08-17T04:57:38.462Z,99.99
2022-08-17T04:58:36.662Z,99.99
2022-08-17T04:59:36.651Z,99.99
2022-08-17T05:00:36.653Z,99.99
2022-08-17T05:01:36.636Z,99.99
2022-08-17T05:02:36.636Z,99.99
2022-08-17T05:03:36.576Z,99.99
2022-08-17T05:04:36.616Z,99.99
2022-08-17T05:05:36.587Z,99.99
2022-08-17T05:06:36.595Z,99.99
2022-08-17T05:07:36.538Z,99.99
2022-08-17T05:08:36.525Z,99.99
2022-08-17T05:09:36.509Z,99.99
2022-08-17T05:10:36.543Z,99.99
2022-08-17T05:11:36.492Z,99.99
2022-08-17T05:12:36.518Z,99.99
2022-08-17T05:13:36.465Z,99.99
2022-08-17T05:14:36.713Z,99.99
2022-08-17T05:15:36.445Z,99.99
2022-08-17T05:16:36.477Z,99.99
2022-08-17T05:17:37.137Z,99.99
2022-08-17T05:18:36.682Z,99.99
2022-08-17T05:19:36.413Z,99.99
2022-08-17T05:20:36.412Z,99.99
2022-08-17T05:21:36.426Z,99.99
2022-08-17T05:22:36.937Z,99.99
2022-08-17T05:23:43.049Z,99.99
2022-08-17T05:24:38.335Z,99.99
2022-08-17T05:25:36.324Z,99.99
2022-08-17T05:26:36.426Z,99.99
2022-08-17T05:27:36.355Z,99.99
2022-08-17T05:28:42.596Z,99.99
2022-08-17T05:29:42.865Z,99.99
2022-08-17T05:30:42.262Z,99.99
2022-08-17T05:31:36.321Z,99.99
2022-08-17T05:32:39.439Z,99.99
2022-08-17T05:33:36.240Z,99.99
2022-08-17T05:34:36.250Z,99.99
2022-08-17T05:35:36.289Z,99.99
2022-08-17T05:36:43.484Z,99.99
2022-08-17T05:37:37.037Z,99.99
2022-08-17T05:38:36.179Z,99.99
2022-08-17T05:39:36.196Z,99.99
2022-08-17T05:40:36.169Z,99.99
2022-08-17T05:41:36.241Z,99.99
2022-08-17T05:42:36.164Z,99.99
2022-08-17T05:43:36.172Z,99.99
2022-08-17T05:44:36.142Z,99.99
2022-08-17T05:45:55.353Z,99.99
2022-08-17T05:46:36.208Z,99.99
2022-08-17T05:47:36.297Z,99.99
2022-08-17T05:48:39.308Z,99.99
2022-08-17T05:49:36.069Z,99.99
2022-08-17T05:50:36.117Z,99.99
2022-08-17T05:51:36.050Z,99.99
2022-08-17T05:52:36.031Z,99.99
2022-08-17T05:53:36.086Z,99.99
2022-08-17T05:54:36.068Z,99.99
2022-08-17T05:55:36.056Z,99.99
2022-08-17T05:56:35.995Z,99.99
2022-08-17T05:57:35.964Z,99.99
2022-08-17T05:58:36.003Z,99.99
2022-08-17T05:59:36.031Z,99.99
2022-08-17T06:00:35.938Z,99.99
2022-08-17T06:01:35.979Z,99.99
2022-08-17T06:02:35.918Z,99.99
2022-08-17T06:03:35.903Z,99.99
2022-08-17T06:04:35.888Z,99.99
2022-08-17T06:05:35.935Z,99.99
2022-08-17T06:06:35.863Z,99.99
2022-08-17T06:07:35.881Z,99.99
2022-08-17T06:08:35.848Z,99.99
2022-08-17T06:09:35.830Z,99.99
2022-08-17T06:10:35.831Z,99.99
2022-08-17T06:11:35.925Z,99.99
2022-08-17T06:12:35.795Z,99.99
2022-08-17T06:13:35.780Z,99.99
2022-08-17T06:14:35.775Z,99.99
2022-08-17T06:15:35.768Z,99.99
2022-08-17T06:16:35.759Z,99.99
2022-08-17T06:17:36.598Z,99.99
2022-08-17T06:18:35.734Z,99.99
2022-08-17T06:19:35.731Z,99.99
2022-08-17T06:20:35.706Z,99.99
2022-08-17T06:21:35.699Z,99.99
2022-08-17T06:22:35.713Z,99.99
2022-08-17T06:23:35.898Z,99.99
2022-08-17T06:24:36.037Z,99.99
2022-08-17T06:25:35.696Z,99.99
2022-08-17T06:26:39.647Z,99.99
2022-08-17T06:27:35.772Z,99.99
2022-08-17T06:28:35.730Z,99.99
2022-08-17T06:29:35.688Z,99.99
2022-08-17T06:30:58.302Z,99.99
2022-08-17T06:31:35.588Z,99.99
2022-08-17T06:32:36.843Z,99.99
2022-08-17T06:33:35.763Z,99.99
2022-08-17T06:34:35.716Z,99.99
2022-08-17T06:35:35.918Z,99.99
2022-08-17T06:36:35.760Z,99.99
2022-08-17T06:37:36.074Z,99.99
2022-08-17T06:38:37.423Z,99.99
2022-08-17T06:39:35.554Z,99.99
2022-08-17T06:40:35.528Z,99.99
2022-08-17T06:41:37.883Z,99.99
2022-08-17T06:42:54.619Z,99.99
2022-08-17T06:43:35.823Z,99.99
2022-08-17T06:44:50.093Z,99.99
2022-08-17T06:45:35.511Z,99.99
2022-08-17T06:46:35.479Z,99.99
2022-08-17T06:47:35.460Z,99.99
2022-08-17T06:48:35.553Z,99.32
2022-08-17T06:49:35.609Z,99.02
2022-08-17T06:50:35.694Z,98.97
2022-08-17T06:51:35.675Z,98.77
2022-08-17T06:52:46.310Z,98.47
2022-08-17T06:53:35.438Z,98.32
2022-08-17T06:54:35.595Z,97.72
2022-08-17T06:55:38.119Z,96.97
2022-08-17T06:56:53.884Z,96.67
2022-08-17T06:57:35.951Z,96.37
2022-08-17T06:58:35.391Z,96.47
2022-08-17T06:59:54.359Z,96.88
2022-08-17T07:00:35.330Z,97.08
2022-08-17T07:01:35.324Z,96.47
2022-08-17T07:02:52.381Z,96.17
2022-08-17T07:03:35.271Z,95.77
2022-08-17T07:04:35.264Z,95.27
2022-08-17T07:05:35.259Z,95.23
2022-08-17T07:06:37.945Z,94.43
2022-08-17T07:07:35.461Z,94.32
2022-08-17T07:08:35.550Z,94.02
2022-08-17T07:09:35.166Z,93.87
2022-08-17T07:10:35.141Z,94.32
2022-08-17T07:11:35.190Z,94.43
2022-08-17T07:12:35.121Z,94.73
2022-08-17T07:13:35.134Z,94.62
2022-08-17T07:14:35.179Z,93.23
2022-08-17T07:15:35.082Z,92.32
2022-08-17T07:16:35.070Z,92.42
2022-08-17T07:17:46.780Z,92.72
2022-08-17T07:18:35.067Z,92.98
2022-08-17T07:19:35.085Z,92.98
2022-08-17T07:20:35.020Z,92.33
2022-08-17T07:21:35.015Z,90.94
2022-08-17T07:22:55.217Z,90.44
2022-08-17T07:23:35.032Z,90.59
2022-08-17T07:24:34.985Z,90.39
2022-08-17T07:25:35.023Z,90.05
2022-08-17T07:26:35.016Z,90.35
2022-08-17T07:27:34.953Z,90.84
2022-08-17T07:28:34.931Z,88.15
2022-08-17T07:29:34.971Z,87.91
2022-08-17T07:30:46.938Z,87.91
2022-08-17T07:31:34.922Z,88.01
2022-08-17T07:32:34.905Z,88.01
2022-08-17T07:33:34.927Z,88.56
2022-08-17T07:34:34.889Z,86.66
2022-08-17T07:35:40.895Z,87.16
2022-08-17T07:36:34.851Z,87.02
2022-08-17T07:37:34.838Z,86.52
2022-08-17T07:38:34.837Z,85.78
2022-08-17T07:39:34.911Z,84.59
2022-08-17T07:40:34.884Z,84.09
2022-08-17T07:41:53.272Z,84.09
2022-08-17T07:42:34.817Z,84.29
2022-08-17T07:43:34.774Z,84.33
2022-08-17T07:44:34.788Z,84.63
2022-08-17T07:45:34.796Z,83.93
2022-08-17T07:46:34.764Z,85.03
2022-08-17T07:47:34.818Z,84.77
2022-08-17T07:48:34.718Z,85.37
2022-08-17T07:49:34.705Z,85.47
2022-08-17T07:50:34.700Z,86.11
2022-08-17T07:51:34.760Z,86.51
2022-08-17T07:52:51.049Z,86.85
2022-08-17T07:53:34.831Z,87.35
2022-08-17T07:54:35.581Z,87.85
2022-08-17T07:55:34.650Z,88.45
2022-08-17T07:56:34.851Z,88.35
2022-08-17T07:57:34.614Z,87.89
2022-08-17T07:58:34.597Z,88.19
2022-08-17T07:59:34.663Z,88.39
2022-08-17T08:00:34.586Z,88.39
2022-08-17T08:01:39.570Z,88.49
2022-08-17T08:02:34.590Z,88.64
2022-08-17T08:03:34.648Z,88.99
2022-08-17T08:04:58.973Z,89.14
2022-08-17T08:05:50.073Z,89.73
2022-08-17T08:06:34.534Z,89.53
2022-08-17T08:07:34.564Z,89.43
2022-08-17T08:08:34.584Z,89.64
2022-08-17T08:09:34.493Z,89.53
2022-08-17T08:10:34.462Z,89.73
2022-08-17T08:11:34.513Z,89.83
2022-08-17T08:12:34.447Z,89.94
2022-08-17T08:13:34.436Z,90.13
2022-08-17T08:14:34.422Z,90.08
2022-08-17T08:15:34.436Z,90.23
2022-08-17T08:16:34.416Z,89.73
2022-08-17T08:17:34.660Z,89.87
2022-08-17T08:18:38.763Z,90.03
2022-08-17T08:19:34.375Z,90.03
2022-08-17T08:20:52.466Z,89.83
2022-08-17T08:21:34.357Z,89.64
2022-08-17T08:22:34.339Z,89.98
2022-08-17T08:23:34.392Z,90.37
2022-08-17T08:24:34.350Z,90.13
2022-08-17T08:25:34.335Z,89.53
2022-08-17T08:26:34.286Z,89.53
2022-08-17T08:27:34.272Z,89.64
2022-08-17T08:28:34.309Z,89.03
2022-08-17T08:29:34.328Z,88.53
2022-08-17T08:30:34.239Z,88.93
2022-08-17T08:31:36.710Z,88.83
2022-08-17T08:32:34.223Z,88.89
2022-08-17T08:33:34.226Z,88.79
2022-08-17T08:34:58.817Z,88.09
2022-08-17T08:35:34.253Z,88.09
2022-08-17T08:37:14.761Z,88.49
2022-08-17T08:37:39.100Z,88.49
2022-08-17T08:38:34.201Z,88.73
2022-08-17T08:39:34.197Z,88.33
2022-08-17T08:40:34.128Z,88.13
2022-08-17T08:41:34.434Z,87.89
2022-08-17T08:42:34.143Z,87.59
2022-08-17T08:43:34.251Z,87.63
2022-08-17T08:45:00.350Z,87.73
2022-08-17T08:45:34.585Z,87.73
2022-08-17T08:46:34.066Z,87.63
2022-08-17T08:47:46.249Z,87.49
2022-08-17T08:48:52.828Z,87.09
2022-08-17T08:50:02.177Z,87.29
2022-08-17T08:50:37.344Z,87.69
2022-08-17T08:51:34.002Z,87.69
2022-08-17T08:52:33.991Z,87.43
2022-08-17T08:53:34.052Z,87.73
2022-08-17T08:54:33.974Z,87.73
2022-08-17T08:55:33.985Z,88.13
2022-08-17T08:56:33.940Z,88.43
2022-08-17T08:57:34.683Z,88.73
2022-08-17T08:58:42.107Z,88.29
2022-08-17T08:59:33.973Z,87.99
2022-08-17T09:00:33.918Z,87.49
2022-08-17T09:01:33.954Z,87.69
2022-08-17T09:02:34.878Z,87.29
2022-08-17T09:03:51.495Z,87.39
2022-08-17T09:04:50.012Z,87.49
2022-08-17T09:05:33.895Z,87.69
2022-08-17T09:06:39.129Z,87.89
2022-08-17T09:07:33.830Z,88.19
2022-08-17T09:08:33.825Z,87.59
2022-08-17T09:09:33.824Z,87.59
2022-08-17T09:10:33.807Z,88.13
2022-08-17T09:11:33.829Z,88.64
2022-08-17T09:12:33.765Z,89.23
2022-08-17T09:13:33.787Z,89.43
2022-08-17T09:14:45.361Z,89.73
2022-08-17T09:15:34.451Z,89.83
2022-08-17T09:16:33.897Z,90.03
2022-08-17T09:17:34.273Z,89.73
2022-08-17T09:18:59.158Z,89.53
2022-08-17T09:19:33.784Z,89.43
2022-08-17T09:20:33.749Z,89.64
2022-08-17T09:21:34.098Z,90.03
2022-08-17T09:22:33.688Z,90.23
2022-08-17T09:23:33.791Z,90.63
2022-08-17T09:24:33.739Z,90.48
2022-08-17T09:25:33.658Z,90.67
2022-08-17T09:26:33.604Z,90.67
2022-08-17T09:27:33.606Z,90.88
2022-08-17T09:28:33.588Z,90.78
2022-08-17T09:29:33.660Z,90.98
2022-08-17T09:30:33.632Z,91.13
2022-08-17T09:31:33.610Z,90.98
2022-08-17T09:32:34.490Z,91.28
2022-08-17T09:33:33.533Z,91.08
2022-08-17T09:34:33.522Z,91.17
2022-08-17T09:35:36.995Z,91.44
2022-08-17T09:36:33.535Z,90.94
2022-08-17T09:37:33.563Z,91.24
2022-08-17T09:38:33.476Z,90.98
2022-08-17T09:39:33.550Z,90.88
2022-08-17T09:40:33.492Z,91.17
2022-08-17T09:41:33.563Z,91.17
2022-08-17T09:42:33.483Z,91.13
2022-08-17T09:43:33.422Z,91.17
2022-08-17T09:44:33.408Z,91.48
2022-08-17T09:45:33.395Z,91.03
2022-08-17T09:46:33.382Z,90.83
2022-08-17T09:47:33.434Z,90.63
2022-08-17T09:48:33.473Z,90.53
2022-08-17T09:49:33.374Z,90.33
2022-08-17T09:51:04.173Z,90.44
2022-08-17T09:51:33.331Z,90.33
2022-08-17T09:52:33.332Z,90.53
2022-08-17T09:53:33.342Z,90.53
2022-08-17T09:54:40.872Z,90.73
2022-08-17T09:55:33.325Z,90.58
2022-08-17T09:56:33.322Z,90.58
2022-08-17T09:57:33.270Z,90.48
2022-08-17T09:58:33.313Z,90.17
2022-08-17T09:59:38.510Z,90.28
2022-08-17T10:00:33.269Z,90.33
2022-08-17T10:01:33.312Z,90.53
2022-08-17T10:02:33.197Z,90.53
2022-08-17T10:03:33.199Z,90.53
2022-08-17T10:04:33.181Z,90.13
2022-08-17T10:05:33.219Z,90.23
2022-08-17T10:06:33.266Z,90.23
2022-08-17T10:07:33.149Z,90.33
2022-08-17T10:08:33.166Z,89.87
2022-08-17T10:09:33.131Z,90.17
2022-08-17T10:10:33.115Z,90.28
2022-08-17T10:11:34.031Z,90.08
2022-08-17T10:12:33.105Z,90.23
2022-08-17T10:13:33.211Z,90.23
2022-08-17T10:14:38.109Z,90.44
2022-08-17T10:15:33.107Z,90.63
2022-08-17T10:16:33.061Z,90.98
2022-08-17T10:17:33.594Z,91.03
2022-08-17T10:18:33.335Z,90.78
2022-08-17T10:19:33.157Z,90.88
2022-08-17T10:20:33.021Z,90.98
2022-08-17T10:21:33.014Z,91.03
2022-08-17T10:22:35.584Z,90.73
2022-08-17T10:23:33.007Z,90.63
2022-08-17T10:24:32.962Z,90.63
2022-08-17T10:25:53.473Z,90.83
2022-08-17T10:26:46.222Z,91.13
2022-08-17T10:27:33.290Z,91.13
2022-08-17T10:28:32.902Z,91.03
2022-08-17T10:29:46.212Z,90.94
2022-08-17T10:30:32.907Z,91.13
2022-08-17T10:31:35.483Z,90.79
2022-08-17T10:32:32.877Z,90.89
2022-08-17T10:33:33.604Z,90.79
2022-08-17T10:34:38.659Z,90.59
2022-08-17T10:35:33.514Z,90.19
2022-08-17T10:36:32.837Z,89.99
2022-08-17T10:37:33.267Z,89.89
2022-08-17T10:38:32.996Z,89.69
2022-08-17T10:39:33.018Z,89.55
2022-08-17T10:40:33.601Z,89.49
2022-08-17T10:41:36.863Z,89.45
2022-08-17T10:42:33.338Z,89.15
2022-08-17T10:43:32.745Z,88.55
2022-08-17T10:44:37.877Z,88.21
2022-08-17T10:45:32.752Z,88.21
2022-08-17T10:46:32.741Z,87.87
2022-08-17T10:47:52.760Z,87.76
2022-08-17T10:48:33.076Z,87.27
2022-08-17T10:49:32.755Z,87.66
2022-08-17T10:50:34.602Z,87.23
2022-08-17T10:51:32.698Z,87.42
2022-08-17T10:52:32.653Z,87.23
2022-08-17T10:53:34.061Z,87.08
2022-08-17T10:54:33.597Z,86.68
2022-08-17T10:55:32.674Z,86.24
2022-08-17T10:56:32.640Z,86.24
2022-08-17T10:57:32.675Z,86.20
2022-08-17T10:58:32.579Z,85.16
2022-08-17T10:59:32.771Z,83.93
2022-08-17T11:00:32.580Z,83.33
2022-08-17T11:01:32.782Z,83.13
2022-08-17T11:02:32.580Z,82.84
2022-08-17T11:03:32.550Z,82.73
2022-08-17T11:04:32.532Z,83.03
2022-08-17T11:05:32.575Z,82.54
2022-08-17T11:06:32.547Z,82.10
2022-08-17T11:07:32.498Z,81.90
2022-08-17T11:08:32.491Z,81.90
2022-08-17T11:09:33.701Z,81.40
2022-08-17T11:10:32.464Z,81.90
2022-08-17T11:11:32.741Z,81.40
2022-08-17T11:12:32.417Z,81.10
2022-08-17T11:13:32.408Z,81.01
2022-08-17T11:14:34.069Z,81.30
2022-08-17T11:15:32.413Z,81.10
2022-08-17T11:16:32.410Z,81.20
2022-08-17T11:17:32.415Z,81.60
2022-08-17T11:18:32.408Z,81.70
2022-08-17T11:19:32.338Z,81.40
2022-08-17T11:20:32.345Z,80.77
2022-08-17T11:21:32.382Z,80.57
2022-08-17T11:22:33.710Z,80.57
2022-08-17T11:23:32.334Z,80.47
2022-08-17T11:24:32.320Z,80.03
2022-08-17T11:25:32.304Z,80.17
2022-08-17T11:26:33.092Z,80.77
2022-08-17T11:27:32.247Z,80.57
2022-08-17T11:28:32.240Z,80.66
2022-08-17T11:29:32.261Z,80.36
2022-08-17T11:30:32.209Z,79.77
2022-08-17T11:31:38.695Z,80.41
2022-08-17T11:32:32.219Z,80.30
2022-08-17T11:33:32.184Z,80.30
2022-08-17T11:34:32.182Z,80.41
2022-08-17T11:35:32.216Z,80.36
2022-08-17T11:36:32.171Z,80.00
2022-08-17T11:37:32.149Z,80.07
2022-08-17T11:38:32.160Z,80.07
2022-08-17T11:39:32.218Z,79.87
2022-08-17T11:40:32.148Z,79.27
2022-08-17T11:41:32.146Z,79.57
2022-08-17T11:42:32.081Z,79.57
2022-08-17T11:43:32.152Z,79.77
2022-08-17T11:44:32.076Z,79.47
2022-08-17T11:45:33.070Z,79.43
2022-08-17T11:46:32.045Z,79.03
2022-08-17T11:47:32.076Z,78.80
2022-08-17T11:48:32.283Z,78.66
2022-08-17T11:49:31.994Z,77.37
2022-08-17T11:50:31.994Z,76.84
2022-08-17T11:51:32.078Z,76.74
2022-08-17T11:52:31.977Z,76.50
2022-08-17T11:53:32.007Z,76.44
2022-08-17T11:54:33.756Z,76.34
2022-08-17T11:55:35.776Z,76.87
2022-08-17T11:56:32.009Z,76.97
2022-08-17T11:57:31.936Z,77.17
2022-08-17T11:58:31.929Z,77.57
2022-08-17T11:59:31.914Z,77.81
2022-08-17T12:00:31.881Z,78.11
2022-08-17T12:01:31.870Z,78.40
2022-08-17T12:02:32.751Z,78.44
2022-08-17T12:03:32.083Z,78.64
2022-08-17T12:04:31.936Z,78.90
2022-08-17T12:05:31.871Z,78.11
2022-08-17T12:06:31.812Z,78.00
2022-08-17T12:07:31.821Z,78.40
2022-08-17T12:08:31.822Z,78.70
2022-08-17T12:09:31.811Z,78.30
2022-08-17T12:10:31.859Z,78.17
2022-08-17T12:12:11.140Z,77.87
2022-08-17T12:12:31.758Z,77.37
2022-08-17T12:13:39.262Z,77.47
2022-08-17T12:15:05.752Z,77.17
2022-08-17T12:15:31.786Z,77.47
2022-08-17T12:16:31.696Z,77.87
2022-08-17T12:17:41.003Z,78.30
2022-08-17T12:18:31.820Z,78.11
2022-08-17T12:19:31.677Z,78.30
2022-08-17T12:20:31.719Z,78.20
2022-08-17T12:21:31.676Z,78.54
2022-08-17T12:22:31.653Z,78.74
2022-08-17T12:23:31.662Z,79.08
2022-08-17T12:24:31.742Z,79.67
2022-08-17T12:25:31.625Z,80.30
2022-08-17T12:26:31.944Z,80.21
2022-08-17T12:27:47.618Z,80.21
2022-08-17T12:28:37.624Z,80.11
2022-08-17T12:29:35.950Z,80.11
2022-08-17T12:30:33.187Z,80.30
2022-08-17T12:31:31.570Z,80.11
2022-08-17T12:32:31.559Z,80.00
2022-08-17T12:33:31.513Z,80.00
2022-08-17T12:34:31.536Z,80.41
2022-08-17T12:35:31.683Z,80.94
2022-08-17T12:36:31.704Z,80.71
2022-08-17T12:37:31.474Z,80.71
2022-08-17T12:38:33.209Z,80.71
2022-08-17T12:39:33.958Z,81.01
2022-08-17T12:40:31.505Z,80.74
2022-08-17T12:41:31.603Z,81.24
2022-08-17T12:42:31.424Z,81.74
2022-08-17T12:43:31.436Z,82.18
2022-08-17T12:44:31.484Z,82.28
2022-08-17T12:45:31.403Z,82.37
2022-08-17T12:46:31.474Z,82.67
2022-08-17T12:47:31.755Z,82.78
2022-08-17T12:48:31.384Z,82.78
2022-08-17T12:49:31.391Z,83.01
2022-08-17T12:50:31.341Z,83.07
2022-08-17T12:51:31.317Z,82.87
2022-08-17T12:52:31.377Z,82.97